createdAt,value
2022-09-09T00:02:07.032Z,1.92
2022-09-09T00:04:36.749Z,1.80
2022-09-09T00:07:12.096Z,1.70
2022-09-09T00:09:50.315Z,1.80
2022-09-09T00:12:27.204Z,1.48
2022-09-09T00:14:58.744Z,1.70
2022-09-09T00:17:37.803Z,1.90
2022-09-09T00:20:14.753Z,2.13
2022-09-09T00:22:49.542Z,2.40
2022-09-09T00:25:25.789Z,2.00
2022-09-09T00:27:53.901Z,1.73
2022-09-09T00:30:24.750Z,2.13
2022-09-09T00:32:59.281Z,1.75
2022-09-09T00:35:31.710Z,1.90
2022-09-09T00:38:06.487Z,1.80
2022-09-09T00:40:37.460Z,1.63
2022-09-09T00:43:23.419Z,1.67
2022-09-09T00:46:12.777Z,1.90
2022-09-09T00:48:53.403Z,2.40
2022-09-09T00:51:32.610Z,1.67
2022-09-09T00:54:19.212Z,1.92
2022-09-09T00:56:55.813Z,2.03
2022-09-09T00:59:34.298Z,1.98
2022-09-09T01:02:02.953Z,1.90
2022-09-09T01:04:38.864Z,1.77
2022-09-09T01:07:18.657Z,2.47
2022-09-09T01:10:09.658Z,2.25
2022-09-09T01:12:44.895Z,1.70
2022-09-09T01:15:14.870Z,1.88
2022-09-09T01:17:56.586Z,2.50
2022-09-09T01:20:30.128Z,2.00
2022-09-09T01:23:11.668Z,1.90
2022-09-09T01:26:12.494Z,2.25
2022-09-09T01:28:41.585Z,2.50
2022-09-09T01:31:14.025Z,2.45
2022-09-09T01:33:42.165Z,2.75
2022-09-09T01:36:14.578Z,2.30
2022-09-09T01:38:42.896Z,2.72
2022-09-09T01:41:12.406Z,2.35
2022-09-09T01:43:40.579Z,2.25
2022-09-09T01:46:08.804Z,2.50
2022-09-09T01:48:37.123Z,2.60
2022-09-09T01:51:05.630Z,2.53
2022-09-09T01:53:33.597Z,2.80
2022-09-09T01:56:11.492Z,2.65
2022-09-09T01:58:54.514Z,2.60
2022-09-09T02:01:34.997Z,2.10
2022-09-09T02:04:10.644Z,2.35
2022-09-09T02:06:42.248Z,2.20
2022-09-09T02:09:14.442Z,2.08
2022-09-09T02:11:45.152Z,2.30
2022-09-09T02:14:20.030Z,2.10
2022-09-09T02:16:53.302Z,2.17
2022-09-09T02:19:27.540Z,2.67
2022-09-09T02:21:58.748Z,2.47
2022-09-09T02:24:28.837Z,2.08
2022-09-09T02:26:59.925Z,2.45
2022-09-09T02:29:33.729Z,2.40
2022-09-09T02:32:05.253Z,2.72
2022-09-09T02:34:37.248Z,2.67
2022-09-09T02:37:06.866Z,2.22
2022-09-09T02:39:34.944Z,2.35
2022-09-09T02:42:04.932Z,2.13
2022-09-09T02:44:34.372Z,2.10
2022-09-09T02:47:20.101Z,1.80
2022-09-09T02:49:59.778Z,2.20
2022-09-09T02:52:35.235Z,1.83
2022-09-09T02:55:09.594Z,2.50
2022-09-09T02:57:39.224Z,2.05
2022-09-09T03:00:10.210Z,2.30
2022-09-09T03:02:38.481Z,2.50
2022-09-09T03:05:07.848Z,3.05
2022-09-09T03:07:36.135Z,2.85
2022-09-09T03:10:05.285Z,2.65
2022-09-09T03:12:34.879Z,3.85
2022-09-09T03:15:03.016Z,3.20
2022-09-09T03:17:32.542Z,3.22
2022-09-09T03:20:00.909Z,2.90
2022-09-09T03:22:29.012Z,3.10
2022-09-09T03:24:57.099Z,2.78
2022-09-09T03:27:25.166Z,2.80
2022-09-09T03:29:53.374Z,3.47
2022-09-09T03:32:23.545Z,2.50
2022-09-09T03:34:53.317Z,3.63
2022-09-09T03:37:21.950Z,2.80
2022-09-09T03:39:50.202Z,3.47
2022-09-09T03:42:19.808Z,4.00
2022-09-09T03:44:51.077Z,3.55
2022-09-09T03:47:20.578Z,3.38
2022-09-09T03:49:49.426Z,2.90
2022-09-09T03:52:23.564Z,3.50
2022-09-09T03:54:52.277Z,3.30
2022-09-09T03:57:20.491Z,3.35
2022-09-09T03:59:48.649Z,3.10
2022-09-09T04:02:17.026Z,3.55
2022-09-09T04:04:45.201Z,2.60
2022-09-09T04:07:13.940Z,3.00
2022-09-09T04:09:43.593Z,2.50
2022-09-09T04:12:14.340Z,2.28
2022-09-09T04:14:42.628Z,2.40
2022-09-09T04:17:11.199Z,2.28
2022-09-09T04:19:39.492Z,3.40
2022-09-09T04:22:07.634Z,2.53
2022-09-09T04:24:36.415Z,2.40
2022-09-09T04:27:06.362Z,2.70
2022-09-09T04:29:34.568Z,2.90
2022-09-09T04:32:03.089Z,3.05
2022-09-09T04:34:31.952Z,2.70
2022-09-09T04:37:01.558Z,2.42
2022-09-09T04:39:29.992Z,2.80
2022-09-09T04:41:58.818Z,3.58
2022-09-09T04:44:28.341Z,4.65
2022-09-09T04:46:57.286Z,4.05
2022-09-09T04:49:25.448Z,4.40
2022-09-09T04:51:54.086Z,3.80
2022-09-09T04:54:22.597Z,3.95
2022-09-09T04:56:52.766Z,4.45
2022-09-09T04:59:20.952Z,3.75
2022-09-09T05:01:51.325Z,3.70
2022-09-09T05:04:20.636Z,3.72
2022-09-09T05:06:49.476Z,3.95
2022-09-09T05:09:17.644Z,3.20
2022-09-09T05:11:45.819Z,4.22
2022-09-09T05:14:13.984Z,3.33
2022-09-09T05:16:42.127Z,3.95
2022-09-09T05:19:11.658Z,3.42
2022-09-09T05:21:39.727Z,3.95
2022-09-09T05:24:07.934Z,3.92
2022-09-09T05:26:35.995Z,4.40
2022-09-09T05:29:04.359Z,4.55
2022-09-09T05:31:34.239Z,4.15
2022-09-09T05:34:02.640Z,5.55
2022-09-09T05:36:32.180Z,4.20
2022-09-09T05:39:00.297Z,4.20
2022-09-09T05:41:29.961Z,3.85
2022-09-09T05:43:59.889Z,3.90
2022-09-09T05:46:28.054Z,5.05
2022-09-09T05:48:56.580Z,6.32
2022-09-09T05:51:27.687Z,4.45
2022-09-09T05:53:59.550Z,5.80
2022-09-09T05:56:29.156Z,6.30
2022-09-09T05:58:58.129Z,5.13
2022-09-09T06:01:28.629Z,4.55
2022-09-09T06:03:57.140Z,3.80
2022-09-09T06:06:28.707Z,4.63
2022-09-09T06:08:59.842Z,5.07
2022-09-09T06:11:29.328Z,5.82
2022-09-09T06:13:57.409Z,4.13
2022-09-09T06:16:29.544Z,3.65
2022-09-09T06:18:59.185Z,3.78
2022-09-09T06:21:28.274Z,3.70
2022-09-09T06:24:00.808Z,3.95
2022-09-09T06:26:31.880Z,4.18
2022-09-09T06:29:01.168Z,3.67
2022-09-09T06:31:32.010Z,3.85
2022-09-09T06:34:01.634Z,3.42
2022-09-09T06:36:32.130Z,3.60
2022-09-09T06:39:01.934Z,3.20
2022-09-09T06:41:31.704Z,2.97
2022-09-09T06:44:00.074Z,2.75
2022-09-09T06:46:31.298Z,2.70
2022-09-09T06:48:59.967Z,4.13
2022-09-09T06:51:29.840Z,3.25
2022-09-09T06:53:59.666Z,3.05
2022-09-09T06:56:31.413Z,3.20
2022-09-09T06:59:05.189Z,2.97
2022-09-09T07:01:35.035Z,3.47
2022-09-09T07:04:05.491Z,2.78
2022-09-09T07:06:35.495Z,2.88
2022-09-09T07:09:06.109Z,4.05
2022-09-09T07:11:39.572Z,3.40
2022-09-09T07:14:08.194Z,3.05
2022-09-09T07:16:38.302Z,3.20
2022-09-09T07:19:06.606Z,3.17
2022-09-09T07:21:35.712Z,2.95
2022-09-09T07:24:08.459Z,2.85
2022-09-09T07:26:39.034Z,3.17
2022-09-09T07:29:07.320Z,3.00
2022-09-09T07:31:37.657Z,4.32
2022-09-09T07:34:06.715Z,3.28
2022-09-09T07:36:36.811Z,3.05
2022-09-09T07:39:07.353Z,3.78
2022-09-09T07:41:39.197Z,2.42
2022-09-09T07:44:08.363Z,2.47
2022-09-09T07:46:37.446Z,2.60
2022-09-09T07:49:05.949Z,2.47
2022-09-09T07:51:42.435Z,4.35
2022-09-09T07:54:12.831Z,2.40
2022-09-09T07:56:43.621Z,2.00
2022-09-09T07:59:11.846Z,2.30
2022-09-09T08:01:42.483Z,2.15
2022-09-09T08:04:16.635Z,2.60
2022-09-09T08:06:47.687Z,3.20
2022-09-09T08:09:16.406Z,2.78
2022-09-09T08:11:46.251Z,2.00
2022-09-09T08:14:14.689Z,2.45
2022-09-09T08:16:45.463Z,2.28
2022-09-09T08:19:16.468Z,2.13
2022-09-09T08:21:46.418Z,1.88
2022-09-09T08:24:15.269Z,2.08
2022-09-09T08:26:47.416Z,2.10
2022-09-09T08:29:16.330Z,2.05
2022-09-09T08:31:46.926Z,2.15
2022-09-09T08:34:16.159Z,2.10
2022-09-09T08:36:46.409Z,1.92
2022-09-09T08:39:16.520Z,2.00
2022-09-09T08:42:19.840Z,2.20
2022-09-09T08:45:01.816Z,2.00
2022-09-09T08:47:42.014Z,2.08
2022-09-09T08:50:22.824Z,2.00
2022-09-09T08:52:57.600Z,2.33
2022-09-09T08:55:35.619Z,1.90
2022-09-09T08:58:13.162Z,2.10
2022-09-09T09:00:54.551Z,2.10
2022-09-09T09:03:33.973Z,1.92
2022-09-09T09:06:09.272Z,2.20
2022-09-09T09:08:46.460Z,1.80
2022-09-09T09:11:15.253Z,1.77
2022-09-09T09:13:49.590Z,1.92
2022-09-09T09:16:26.134Z,2.05
2022-09-09T09:19:07.132Z,2.03
2022-09-09T09:21:41.777Z,1.83
2022-09-09T09:24:21.473Z,1.77
2022-09-09T09:26:50.762Z,1.98
2022-09-09T09:29:22.841Z,1.80
2022-09-09T09:31:55.783Z,1.90
2022-09-09T09:34:24.529Z,1.73
2022-09-09T09:36:57.195Z,1.85
2022-09-09T09:42:20.361Z,1.85
2022-09-09T09:44:53.553Z,1.50
2022-09-09T09:47:24.621Z,1.40
2022-09-09T09:49:56.765Z,1.55
2022-09-09T09:54:55.863Z,1.67
2022-09-09T09:57:30.415Z,1.50
2022-09-09T10:00:16.207Z,1.30
2022-09-09T10:02:45.713Z,1.05
2022-09-09T10:05:18.400Z,1.10
2022-09-09T10:08:02.424Z,0.93
2022-09-09T10:10:47.418Z,1.15
2022-09-09T10:13:25.099Z,0.90
2022-09-09T10:16:09.935Z,4.82
2022-09-09T10:18:48.537Z,1.10
2022-09-09T10:21:33.235Z,1.00
2022-09-09T10:24:19.978Z,1.23
2022-09-09T10:26:56.461Z,0.90
2022-09-09T10:29:40.865Z,1.15
2022-09-09T10:32:30.857Z,1.15
2022-09-09T10:35:07.011Z,1.10
2022-09-09T10:37:49.367Z,0.80
2022-09-09T10:40:31.290Z,0.90
2022-09-09T10:43:11.876Z,1.08
2022-09-09T10:45:51.967Z,0.90
2022-09-09T10:48:44.470Z,0.98
2022-09-09T10:53:56.088Z,0.90
2022-09-09T10:56:26.600Z,0.70
2022-09-09T10:58:59.143Z,1.05
2022-09-09T11:01:31.542Z,0.90
2022-09-09T11:04:07.118Z,0.88
2022-09-09T11:06:42.173Z,0.80
2022-09-09T11:09:18.244Z,0.82
2022-09-09T11:11:52.131Z,0.82
2022-09-09T11:14:31.160Z,0.82
2022-09-09T11:17:04.434Z,0.75
2022-09-09T11:19:38.394Z,1.30
2022-09-09T11:22:16.025Z,1.27
2022-09-09T11:24:49.430Z,1.00
2022-09-09T11:27:23.070Z,1.33
2022-09-09T11:30:12.046Z,1.60
2022-09-09T11:33:10.008Z,1.00
2022-09-09T11:35:52.627Z,1.00
2022-09-09T11:38:29.044Z,1.08
2022-09-09T11:41:00.667Z,0.88
2022-09-09T11:43:33.152Z,1.10
2022-09-09T11:46:04.875Z,1.00
2022-09-09T11:48:38.106Z,1.38
2022-09-09T11:51:16.051Z,1.20
2022-09-09T11:53:53.262Z,1.35
2022-09-09T11:56:31.049Z,1.50
2022-09-09T11:59:03.228Z,1.10
2022-09-09T12:04:22.407Z,1.20
2022-09-09T12:06:56.191Z,1.10
2022-09-09T12:09:34.946Z,1.20
2022-09-09T12:12:26.545Z,1.50
2022-09-09T12:15:04.433Z,1.50
2022-09-09T12:17:34.462Z,1.30
2022-09-09T12:20:08.457Z,1.27
2022-09-09T12:23:03.120Z,1.55
2022-09-09T12:25:43.427Z,1.10
2022-09-09T12:28:22.585Z,1.50
2022-09-09T12:30:59.158Z,1.35
2022-09-09T12:33:28.004Z,1.60
2022-09-09T12:36:00.711Z,1.45
2022-09-09T12:38:37.484Z,1.50
2022-09-09T12:41:06.240Z,1.45
2022-09-09T12:43:35.091Z,1.42
2022-09-09T12:46:09.867Z,1.00
2022-09-09T12:48:41.505Z,1.23
2022-09-09T12:51:21.267Z,1.42
2022-09-09T12:53:51.368Z,1.80
2022-09-09T12:56:24.497Z,1.33
2022-09-09T12:58:54.225Z,1.70
2022-09-09T13:01:25.320Z,1.60
2022-09-09T13:03:54.326Z,1.70
2022-09-09T13:06:28.784Z,1.48
2022-09-09T13:09:00.846Z,1.42
2022-09-09T13:11:34.067Z,1.40
2022-09-09T13:14:04.579Z,1.30
2022-09-09T13:16:41.869Z,1.30
2022-09-09T13:19:15.728Z,1.10
2022-09-09T13:21:44.915Z,1.50
2022-09-09T13:24:30.683Z,1.13
2022-09-09T13:27:01.489Z,1.15
2022-09-09T13:29:30.728Z,1.33
2022-09-09T13:32:07.465Z,1.23
2022-09-09T13:34:38.629Z,1.40
2022-09-09T13:37:08.895Z,1.40
2022-09-09T13:39:39.765Z,1.15
2022-09-09T13:42:09.389Z,1.10
2022-09-09T13:44:42.827Z,1.30
2022-09-09T13:47:21.482Z,1.00
2022-09-09T13:49:52.773Z,1.15
2022-09-09T13:52:22.943Z,1.30
2022-09-09T13:54:55.163Z,1.20
2022-09-09T13:57:26.374Z,1.20
2022-09-09T14:00:11.502Z,1.00
2022-09-09T14:02:39.916Z,1.30
2022-09-09T14:05:10.080Z,1.05
2022-09-09T14:07:39.018Z,1.17
2022-09-09T14:10:09.678Z,1.50
2022-09-09T14:12:37.897Z,1.38
2022-09-09T14:15:06.615Z,1.13
2022-09-09T14:17:37.283Z,1.50
2022-09-09T14:20:08.940Z,1.48
2022-09-09T14:22:38.088Z,1.70
2022-09-09T14:25:07.797Z,1.80
2022-09-09T14:27:37.794Z,1.17
2022-09-09T14:30:07.258Z,1.85
2022-09-09T14:32:35.440Z,1.20
2022-09-09T14:35:03.570Z,1.30
2022-09-09T14:37:32.403Z,1.45
2022-09-09T14:40:00.668Z,1.20
2022-09-09T14:42:30.601Z,1.70
2022-09-09T14:45:00.112Z,1.90
2022-09-09T14:47:28.442Z,1.40
2022-09-09T14:49:57.031Z,1.70
2022-09-09T14:52:25.193Z,1.20
2022-09-09T14:54:53.358Z,1.40
2022-09-09T14:57:21.619Z,1.50
2022-09-09T14:59:51.476Z,1.50
2022-09-09T15:02:21.099Z,1.25
2022-09-09T15:04:50.982Z,1.35
2022-09-09T15:07:20.638Z,1.40
2022-09-09T15:09:49.844Z,1.60
2022-09-09T15:12:19.938Z,1.27
2022-09-09T15:14:48.220Z,1.40
2022-09-09T15:17:16.532Z,1.60
2022-09-09T15:19:46.016Z,1.48
2022-09-09T15:22:14.509Z,1.20
2022-09-09T15:24:42.581Z,1.20
2022-09-09T15:27:10.673Z,1.20
2022-09-09T15:29:39.425Z,1.70
2022-09-09T15:32:07.845Z,1.48
2022-09-09T15:34:35.964Z,1.10
2022-09-09T15:37:05.563Z,1.70
2022-09-09T15:39:36.904Z,1.85
2022-09-09T15:42:08.122Z,1.20
2022-09-09T15:44:41.281Z,1.30
2022-09-09T15:47:09.380Z,1.50
2022-09-09T15:49:37.543Z,1.45
2022-09-09T15:52:07.440Z,1.40
2022-09-09T15:54:37.323Z,1.60
2022-09-09T15:57:06.993Z,1.50
2022-09-09T15:59:35.761Z,1.30
2022-09-09T16:02:04.537Z,1.60
2022-09-09T16:04:33.388Z,1.60
2022-09-09T16:07:03.285Z,1.45
2022-09-09T16:09:33.564Z,1.40
2022-09-09T16:12:03.549Z,1.30
2022-09-09T16:14:35.201Z,1.30
2022-09-09T16:17:03.612Z,1.50
2022-09-09T16:19:31.725Z,1.65
2022-09-09T16:22:00.418Z,1.00
2022-09-09T16:24:29.475Z,1.10
2022-09-09T16:26:59.019Z,1.30
2022-09-09T16:29:29.021Z,1.48
2022-09-09T16:32:02.684Z,1.20
2022-09-09T16:34:32.226Z,1.27
2022-09-09T16:37:00.281Z,1.17
2022-09-09T16:39:28.496Z,1.48
2022-09-09T16:41:56.556Z,1.55
2022-09-09T16:44:27.253Z,1.48
2022-09-09T16:47:00.531Z,1.30
2022-09-09T16:49:29.585Z,1.77
2022-09-09T16:52:00.352Z,1.70
2022-09-09T16:54:30.176Z,1.73
2022-09-09T16:56:58.778Z,1.50
2022-09-09T16:59:28.676Z,1.58
2022-09-09T17:01:56.897Z,2.25
2022-09-09T17:04:29.094Z,1.60
2022-09-09T17:09:30.077Z,1.52
2022-09-09T17:11:58.513Z,1.30
2022-09-09T17:14:28.016Z,1.40
2022-09-09T17:16:56.102Z,1.30
2022-09-09T17:19:27.537Z,1.30
2022-09-09T17:22:16.024Z,1.30
2022-09-09T17:24:45.431Z,1.30
2022-09-09T17:27:13.922Z,1.30
2022-09-09T17:29:43.944Z,1.40
2022-09-09T17:32:12.122Z,1.50
2022-09-09T17:34:40.213Z,1.73
2022-09-09T17:37:09.213Z,1.40
2022-09-09T17:39:37.785Z,1.52
2022-09-09T17:42:11.088Z,1.92
2022-09-09T17:44:40.072Z,1.67
2022-09-09T17:47:09.672Z,1.50
2022-09-09T17:49:38.246Z,1.80
2022-09-09T17:52:06.989Z,1.58
2022-09-09T17:54:35.042Z,1.50
2022-09-09T17:57:03.145Z,1.75
2022-09-09T17:59:31.708Z,2.28
2022-09-09T18:01:59.924Z,1.65
2022-09-09T18:04:29.402Z,1.95
2022-09-09T18:06:59.399Z,1.80
2022-09-09T18:09:28.702Z,2.58
2022-09-09T18:11:58.318Z,2.00
2022-09-09T18:14:28.903Z,1.90
2022-09-09T18:16:57.191Z,2.63
2022-09-09T18:19:27.612Z,1.60
2022-09-09T18:22:00.233Z,2.35
2022-09-09T18:24:33.932Z,2.08
2022-09-09T18:27:02.563Z,1.83
2022-09-09T18:29:31.568Z,2.00
2022-09-09T18:32:00.933Z,2.22
2022-09-09T18:34:30.961Z,1.70
2022-09-09T18:37:05.852Z,1.50
2022-09-09T18:39:34.250Z,1.70
2022-09-09T18:42:02.780Z,2.00
2022-09-09T18:44:33.628Z,1.70
2022-09-09T18:47:04.995Z,1.90
2022-09-09T18:49:34.043Z,1.92
2022-09-09T18:52:04.592Z,1.90
2022-09-09T18:54:34.680Z,1.63
2022-09-09T18:57:03.372Z,2.10
2022-09-09T18:59:32.375Z,2.83
2022-09-09T19:02:00.839Z,2.92
2022-09-09T19:04:29.837Z,2.30
2022-09-09T19:06:59.179Z,2.53
2022-09-09T19:09:31.970Z,2.97
2022-09-09T19:12:01.420Z,2.30
2022-09-09T19:14:30.665Z,2.33
2022-09-09T19:16:59.122Z,2.13
2022-09-09T19:19:29.607Z,2.22
2022-09-09T19:21:58.336Z,2.25
2022-09-09T19:24:30.628Z,2.38
2022-09-09T19:27:02.040Z,2.53
2022-09-09T19:29:32.630Z,2.30
2022-09-09T19:34:51.896Z,3.50
2022-09-09T19:37:20.157Z,2.90
2022-09-09T19:39:51.023Z,3.28
2022-09-09T19:42:19.521Z,2.83
2022-09-09T19:44:47.812Z,3.60
2022-09-09T19:47:15.955Z,3.08
2022-09-09T19:49:47.257Z,3.08
2022-09-09T19:52:16.374Z,3.40
2022-09-09T19:54:44.604Z,3.63
2022-09-09T19:57:14.215Z,3.45
2022-09-09T19:59:42.329Z,3.03
2022-09-09T20:02:13.315Z,3.10
2022-09-09T20:04:41.465Z,3.10
2022-09-09T20:07:10.100Z,3.60
2022-09-09T20:09:44.212Z,4.50
2022-09-09T20:12:13.686Z,4.75
2022-09-09T20:14:41.931Z,4.82
2022-09-09T20:17:11.249Z,4.55
2022-09-09T20:19:40.083Z,4.18
2022-09-09T20:22:08.208Z,4.15
2022-09-09T20:24:37.120Z,5.03
2022-09-09T20:27:07.206Z,5.80
2022-09-09T20:29:38.520Z,6.45
2022-09-09T20:32:07.215Z,6.82
2022-09-09T20:34:35.367Z,7.13
2022-09-09T20:37:04.864Z,6.88
2022-09-09T20:39:33.068Z,6.30
2022-09-09T20:42:01.850Z,7.30
2022-09-09T20:44:29.928Z,6.70
2022-09-09T20:47:04.289Z,7.72
2022-09-09T20:49:35.103Z,9.52
2022-09-09T20:52:03.595Z,10.40
2022-09-09T20:54:31.698Z,9.95
2022-09-09T20:57:00.555Z,11.90
2022-09-09T20:59:29.905Z,11.18
2022-09-09T21:02:01.089Z,12.13
2022-09-09T21:04:30.016Z,11.13
2022-09-09T21:06:58.467Z,12.27
2022-09-09T21:09:26.586Z,12.02
2022-09-09T21:11:54.967Z,9.88
2022-09-09T21:14:23.843Z,12.00
2022-09-09T21:16:52.140Z,11.05
2022-09-09T21:19:21.695Z,12.20
2022-09-09T21:21:49.753Z,12.73
2022-09-09T21:24:18.290Z,12.77
2022-09-09T21:26:46.397Z,12.00
2022-09-09T21:29:14.435Z,12.65
2022-09-09T21:31:43.322Z,12.48
2022-09-09T21:34:13.556Z,12.88
2022-09-09T21:36:43.054Z,11.60
2022-09-09T21:39:11.403Z,11.65
2022-09-09T21:41:39.506Z,12.88
2022-09-09T21:44:09.233Z,12.75
2022-09-09T21:46:37.729Z,12.45
2022-09-09T21:49:05.841Z,11.88
2022-09-09T21:51:33.916Z,14.10
2022-09-09T21:54:03.389Z,13.18
2022-09-09T21:56:31.527Z,13.05
2022-09-09T21:59:02.439Z,12.90
2022-09-09T22:01:31.913Z,14.20
2022-09-09T22:04:00.612Z,14.05
2022-09-09T22:06:28.717Z,14.02
2022-09-09T22:08:57.391Z,13.70
2022-09-09T22:11:26.938Z,11.30
2022-09-09T22:13:55.152Z,13.02
2022-09-09T22:16:24.243Z,14.13
2022-09-09T22:18:53.716Z,14.57
2022-09-09T22:21:22.163Z,13.25
2022-09-09T22:23:53.696Z,10.13
2022-09-09T22:26:21.899Z,9.77
2022-09-09T22:28:54.020Z,8.95
2022-09-09T22:31:23.127Z,9.98
2022-09-09T22:33:52.112Z,8.20
2022-09-09T22:36:21.243Z,9.45
2022-09-09T22:38:50.024Z,8.40
2022-09-09T22:41:18.936Z,11.23
2022-09-09T22:43:47.581Z,9.05
2022-09-09T22:46:17.605Z,9.20
2022-09-09T22:48:45.886Z,8.68
2022-09-09T22:51:16.157Z,7.93
2022-09-09T22:53:45.990Z,8.52
2022-09-09T22:56:17.334Z,6.68
2022-09-09T22:58:47.716Z,7.20
2022-09-09T23:01:19.508Z,6.93
2022-09-09T23:03:48.323Z,7.60
2022-09-09T23:06:22.410Z,7.78
2022-09-09T23:08:53.876Z,6.72
2022-09-09T23:11:22.324Z,7.35
2022-09-09T23:13:53.267Z,7.93
2022-09-09T23:16:24.817Z,8.68
2022-09-09T23:18:55.186Z,8.07
2022-09-09T23:21:26.414Z,6.93
2022-09-09T23:23:55.673Z,7.88
2022-09-09T23:26:25.437Z,8.23
2022-09-09T23:28:58.533Z,7.82
2022-09-09T23:31:29.577Z,7.47
2022-09-09T23:33:58.280Z,7.65
2022-09-09T23:36:29.775Z,8.15
2022-09-09T23:38:58.892Z,8.32
2022-09-09T23:41:27.842Z,8.13
2022-09-09T23:43:56.215Z,8.60
2022-09-09T23:46:28.751Z,7.25
2022-09-09T23:48:59.475Z,8.75
2022-09-09T23:51:30.716Z,8.55
2022-09-09T23:54:01.991Z,7.30
2022-09-09T23:56:32.534Z,7.55
2022-09-09T23:59:01.051Z,8.82
